Carmen — SMGW — position and weather

sailwx.info

Track history (hours):
 
Tides and Currents Weather Stations Pressure Air Temp Water Temp Dewpoint Dewpoint Depression Visibility Wind Speed Wind Dir Waves Ship Positions

Carmen

Last reported at 2014-Aug-02 06:00 UTC. Time now 2014-Aug-02 06:41 UTC.
Position N 53°54' W 152°42'.

Length 228 m; draft 8.4 m.

Type: Cargo ship. MMSI: 266339000.

Wind from 020 at 14 knots

Barometer 1014.1 mb
Air temperature 12.8 ° C
Visibility: greater than 2.2 NM
Water temperature 14.4 ° C

Date/timePositionNaut miles runAvg speedWind from/ knotsBaromVisibWave heightAir tempDewpointWater temp
2014-Aug-02 06:00N 53°54' W 152°42'10016.7 020 / 141014.1 2.2 12.8 14.4
2014-Aug-02 00:00N 53°42' W 149°54'9816.3 040 / 121015.610.8 1.014.3 14.0
2014-Aug-01 18:00N 53°24' W 147°12'10317.2 080 / 161016.9 5.4 1.013.5 14.0
2014-Aug-01 12:00N 53°00' W 144°24'11118.6 090 / 121018.8 2.2 13.7 14.0
2014-Aug-01 06:00N 52°24' W 141°30'18115.0 150 / 171020.6 5.4 14.0 14.5
2014-Jul-31 18:00N 51°48' W 136°42'10217.1 140 / 121024.710.8 0.516.1 15.7
2014-Jul-31 12:00N 51°06' W 134°12'11118.5 180 / 81024.910.8 16.0
2014-Jul-31 06:00N 50°24' W 131°30'12913.4 050 / 81024.710.8 14.9 16.4
2014-Jul-30 20:23N 49°35' W 128°25'1315.1
2014-Jul-30 19:34N 49°30' W 128°07'2214.8
2014-Jul-30 18:06N 49°20' W 127°37'552.7
2014-Jul-30 18:00N 49°18' W 127°30'3 6.4 330 / 171022.510.8 1.515.3 16.4
2014-Jul-30 17:32N 49°17' W 127°26'1414.5
2014-Jul-30 16:33N 49°10' W 127°07'1515.4
2014-Jul-30 15:34N 49°03' W 126°46'1515.4
2014-Jul-30 14:34N 48°57' W 126°25'1514.7
2014-Jul-30 13:34N 48°50' W 126°05'1515.1
2014-Jul-30 12:34N 48°43' W 125°44'1628.4
2014-Jul-30 12:00N 48°30' W 125°30'716.2 300 / 141024.010.8 14.2 12.0
2014-Jul-30 11:33N 48°36' W 125°24'1514.8
2014-Jul-30 10:34N 48°31' W 125°03'1515.2
2014-Jul-30 09:34N 48°30' W 124°40'1615.5
2014-Jul-30 08:33N 48°24' W 124°19'1615.9
2014-Jul-30 07:33N 48°18' W 123°57'1716.5
2014-Jul-30 06:31N 48°15' W 123°32'1111.8
2014-Jul-30 05:33N 48°10' W 123°16'1817.9
2014-Jul-30 04:33N 48°12' W 122°49'1818.0
2014-Jul-30 03:33N 47°57' W 122°33'1717.2
2014-Jul-30 02:33N 47°41' W 122°27'1616.4
2014-Jul-30 01:33N 47°25' W 122°22'9 8.5
2014-Jul-30 00:33N 47°16' W 122°24'1 0.2
2014-Jul-29 21:24N 47°16' W 122°23'0 0.0
2014-Jul-29 20:30N 47°16' W 122°23'0 0.0
2014-Jul-29 19:24N 47°16' W 122°23'0 0.0
2014-Jul-29 17:30N 47°16' W 122°23'0 0.0
2014-Jul-29 15:24N 47°16' W 122°23'0 0.0
2014-Jul-29 14:18N 47°16' W 122°23'0 0.2
2014-Jul-29 13:33N 47°16' W 122°23'2 2.5
2014-Jul-29 12:34N 47°17' W 122°26'7 7.2
2014-Jul-29 11:33N 47°24' W 122°22'1616.5
2014-Jul-29 10:33N 47°40' W 122°28'1717.4
2014-Jul-29 09:33N 47°57' W 122°33'1817.6
2014-Jul-29 08:33N 48°11' W 122°50'1515.0
2014-Jul-29 07:33N 48°11' W 123°12'1212.5
2014-Jul-29 06:33N 48°13' W 123°31'1211.9
2014-Jul-29 05:33N 48°13' W 123°49'1515.2
2014-Jul-29 04:33N 48°18' W 124°10'1616.5
2014-Jul-29 03:33N 48°25' W 124°33'1616.4
2014-Jul-29 02:33N 48°29' W 124°57'1515.2
2014-Jul-29 01:33N 48°15' W 125°07'1515.4
2014-Jul-29 00:33N 48°00' W 125°14'1616.0
2014-Jul-28 23:33N 47°44' W 125°17'2416.0
2014-Jul-28 22:05N 47°21' W 125°16'916.2
2014-Jul-28 21:33N 47°12' W 125°16'1816.2
2014-Jul-28 20:26N 46°54' W 125°15'1416.5
2014-Jul-28 19:33N 46°40' W 125°14'2817.7
2014-Jul-28 18:00N 46°12' W 125°12'813.1 340 / 101021.210.8 1.517.0 18.2
2014-Jul-28 17:21N 46°04' W 125°13'2016.2
2014-Jul-28 16:08N 45°44' W 125°12'4516.3
2014-Jul-28 13:22N 44°59' W 125°11'2921.2
2014-Jul-28 12:00N 44°30' W 125°06'9616.0 010 / 171019.2 2.2 16.3 16.0
2014-Jul-28 06:00N 42°54' W 125°06'10818.0 010 / 141018.0 5.4 14.6 11.2
2014-Jul-28 00:00N 41°06' W 125°00'8514.2 350 / 171016.2 1.1 1.514.9 13.0
2014-Jul-27 18:00N 39°42' W 124°42'1415.7 360 / 161015.7 1.1 1.512.7 13.9
2014-Jul-27 17:08N 39°29' W 124°37'4216.0
2014-Jul-27 14:31N 38°50' W 124°19'1515.9
2014-Jul-27 13:33N 38°35' W 124°12'1615.7
2014-Jul-27 12:32N 38°21' W 124°05'917.0
2014-Jul-27 12:00N 38°12' W 124°00'714.0 320 / 41014.0 5.4 14.1 15.0
2014-Jul-27 11:29N 38°05' W 123°58'1715.7
2014-Jul-27 10:24N 37°49' W 123°50'1416.0
2014-Jul-27 09:33N 37°36' W 123°44'1616.3
2014-Jul-27 08:33N 37°21' W 123°38'1616.2
2014-Jul-27 07:33N 37°06' W 123°30'1616.3
2014-Jul-27 06:33N 36°53' W 123°18'1934.5
2014-Jul-27 06:00N 36°36' W 123°06'4 9.7 1015.3 5.4 15.2 17.2
2014-Jul-27 05:33N 36°40' W 123°05'1716.8
2014-Jul-27 04:33N 36°27' W 122°52'1716.9
2014-Jul-27 03:33N 36°14' W 122°39'1716.8
2014-Jul-27 02:33N 36°01' W 122°25'1716.6
2014-Jul-27 01:33N 35°48' W 122°13'1716.6
2014-Jul-27 00:33N 35°35' W 121°60'1221.4
2014-Jul-27 00:00N 35°24' W 121°54'614.1 230 / 21015.2 2.2 1.017.4 18.0
2014-Jul-26 23:33N 35°22' W 121°47'1716.9
2014-Jul-26 22:33N 35°09' W 121°34'1716.5
2014-Jul-26 21:33N 34°56' W 121°21'1716.6
2014-Jul-26 20:33N 34°43' W 121°08'1515.1
2014-Jul-26 19:32N 34°31' W 120°57'4 3.8
2014-Jul-26 18:31N 34°27' W 120°55'9 9.0
2014-Jul-26 17:33N 34°25' W 120°45'1312.5
2014-Jul-26 16:33N 34°21' W 120°30'1312.7
2014-Jul-26 15:34N 34°18' W 120°15'1312.6
2014-Jul-26 14:34N 34°15' W 120°01'1312.5
2014-Jul-26 13:33N 34°11' W 119°46'1212.4
2014-Jul-26 12:33N 34°08' W 119°32'1211.9
2014-Jul-26 11:34N 34°06' W 119°18'6 5.7
2014-Jul-26 10:33N 34°09' W 119°12'0 0.0
2014-Jul-26 09:32N 34°09' W 119°12'0 0.0
2014-Jul-26 08:32N 34°09' W 119°12'0 0.0
2014-Jul-26 07:32N 34°09' W 119°12'0 0.0
2014-Jul-26 06:32N 34°09' W 119°12'0 0.0
2014-Jul-26 05:29N 34°09' W 119°12'0 0.0
2014-Jul-26 04:32N 34°09' W 119°12'0 0.0
2014-Jul-26 03:32N 34°09' W 119°12'0 0.0
2014-Jul-26 02:32N 34°09' W 119°12'0 0.0
2014-Jul-26 01:32N 34°09' W 119°12'0 0.0
2014-Jul-26 00:32N 34°09' W 119°12'0 0.0
2014-Jul-25 23:14N 34°09' W 119°12'0 0.0
2014-Jul-25 22:29N 34°09' W 119°12'0 0.0
2014-Jul-25 21:32N 34°09' W 119°12'0 0.0
2014-Jul-25 20:14N 34°09' W 119°12'0 0.0
2014-Jul-25 19:32N 34°09' W 119°12'0 0.0
2014-Jul-25 18:32N 34°09' W 119°12'0 0.0
2014-Jul-25 17:32N 34°09' W 119°12'0 0.0
2014-Jul-25 16:17N 34°09' W 119°12'0 0.0
2014-Jul-25 14:23N 34°09' W 119°12'0 0.3
2014-Jul-25 13:17N 34°09' W 119°13'5 6.2
2014-Jul-25 12:31N 34°04' W 119°14'7 7.0
2014-Jul-25 11:32N 34°00' W 119°07'7 6.9
2014-Jul-25 10:33N 33°54' W 119°09'8 7.6
2014-Jul-25 09:31N 33°46' W 119°11'7 7.5
2014-Jul-25 08:33N 33°39' W 119°13'9 8.0
2014-Jul-25 07:23N 33°30' W 119°15'7 8.0
2014-Jul-25 06:33N 33°23' W 119°14'8 7.9
2014-Jul-25 05:33N 33°16' W 119°12'8 8.4
2014-Jul-25 04:33N 33°07' W 119°10'8 8.1
2014-Jul-25 03:33N 32°59' W 119°08'8 8.0
2014-Jul-25 02:33N 32°51' W 119°08'3 2.6
2014-Jul-25 01:33N 32°49' W 119°09'1 0.8
2014-Jul-25 00:33N 32°49' W 119°10'1627.6
2014-Jul-25 00:00N 32°36' W 119°00'1 2.5 290 / 391009.7 5.4 2.020.3 20.1
2014-Jul-24 23:34N 32°36' W 118°59'1414.1
2014-Jul-24 22:33N 32°24' W 118°49'1312.7
2014-Jul-24 21:33N 32°13' W 118°42'1312.6
2014-Jul-24 20:32N 32°02' W 118°34'1313.1
2014-Jul-24 19:33N 31°50' W 118°27'1514.9
2014-Jul-24 18:33N 31°37' W 118°19'916.7
2014-Jul-24 18:00N 31°30' W 118°12'614.5 310 / 141011.8 5.4 1.519.6 20.7
2014-Jul-24 17:33N 31°24' W 118°09'1515.3
2014-Jul-24 16:33N 31°11' W 118°00'4615.4
2014-Jul-24 13:33N 30°32' W 117°32'1615.8
2014-Jul-24 12:31N 30°18' W 117°22'6121152.3
2014-Jul-24 12:00N 20°06' W 117°12'5991317.9 310 / 371010.1 2.2 19.8 20.1
2014-Jul-24 11:32N 30°05' W 117°13'1515.4
2014-Jul-24 10:33N 29°52' W 117°04'1615.6
2014-Jul-24 09:33N 29°38' W 116°55'1715.7
2014-Jul-24 08:28N 29°24' W 116°45'1515.4
2014-Jul-24 07:30N 29°11' W 116°36'1515.5
2014-Jul-24 06:33N 28°58' W 116°27'1323.4
2014-Jul-24 06:00N 28°48' W 116°18'3 6.1 340 / 661011.810.8 20.7 21.3
2014-Jul-24 05:33N 28°45' W 116°18'1515.5
2014-Jul-24 04:33N 28°32' W 116°09'1615.9
2014-Jul-24 03:33N 28°18' W 115°60'1616.1
2014-Jul-24 02:33N 28°05' W 115°50'3215.8
2014-Jul-24 00:33N 27°39' W 115°29'1515.2
2014-Jul-23 23:33N 27°27' W 115°18'1515.3
2014-Jul-23 22:33N 27°15' W 115°08'7315.9
2014-Jul-23 18:00N 26°18' W 114°18'9816.4 360 / 41013.310.8 0.521.6 22.5
2014-Jul-23 12:00N 25°00' W 113°12'9816.4 320 / 161011.1 5.4 23.2 27.1
2014-Jul-23 06:00N 23°42' W 112°06'   290 / 161013.110.8 25.6 29.1
Track history (hours):
 
Tides and Currents Weather Stations Pressure Air Temp Water Temp Dewpoint Dewpoint Depression Visibility Wind Speed Wind Dir Waves Ship Positions

Carmen

Last reported at 2014-Aug-02 06:00 UTC. Time now 2014-Aug-02 06:41 UTC.
Position N 53°54' W 152°42'.

Length 228 m; draft 8.4 m.

Type: Cargo ship. MMSI: 266339000.

Wind from 020 at 14 knots

Barometer 1014.1 mb
Air temperature 12.8 ° C
Visibility: greater than 2.2 NM
Water temperature 14.4 ° C

Date/timePositionNaut miles runAvg speedWind from/ knotsBaromVisibWave heightAir tempDewpointWater temp
2014-Aug-02 06:00N 53°54' W 152°42'10016.7 020 / 141014.1 2.2 12.8 14.4
2014-Aug-02 00:00N 53°42' W 149°54'9816.3 040 / 121015.610.8 1.014.3 14.0
2014-Aug-01 18:00N 53°24' W 147°12'10317.2 080 / 161016.9 5.4 1.013.5 14.0
2014-Aug-01 12:00N 53°00' W 144°24'11118.6 090 / 121018.8 2.2 13.7 14.0
2014-Aug-01 06:00N 52°24' W 141°30'18115.0 150 / 171020.6 5.4 14.0 14.5
2014-Jul-31 18:00N 51°48' W 136°42'10217.1 140 / 121024.710.8 0.516.1 15.7
2014-Jul-31 12:00N 51°06' W 134°12'11118.5 180 / 81024.910.8 16.0
2014-Jul-31 06:00N 50°24' W 131°30'12913.4 050 / 81024.710.8 14.9 16.4
2014-Jul-30 20:23N 49°35' W 128°25'1315.1
2014-Jul-30 19:34N 49°30' W 128°07'2214.8
2014-Jul-30 18:06N 49°20' W 127°37'552.7
2014-Jul-30 18:00N 49°18' W 127°30'3 6.4 330 / 171022.510.8 1.515.3 16.4
2014-Jul-30 17:32N 49°17' W 127°26'1414.5
2014-Jul-30 16:33N 49°10' W 127°07'1515.4
2014-Jul-30 15:34N 49°03' W 126°46'1515.4
2014-Jul-30 14:34N 48°57' W 126°25'1514.7
2014-Jul-30 13:34N 48°50' W 126°05'1515.1
2014-Jul-30 12:34N 48°43' W 125°44'1628.4
2014-Jul-30 12:00N 48°30' W 125°30'716.2 300 / 141024.010.8 14.2 12.0
2014-Jul-30 11:33N 48°36' W 125°24'1514.8
2014-Jul-30 10:34N 48°31' W 125°03'1515.2
2014-Jul-30 09:34N 48°30' W 124°40'1615.5
2014-Jul-30 08:33N 48°24' W 124°19'1615.9
2014-Jul-30 07:33N 48°18' W 123°57'1716.5
2014-Jul-30 06:31N 48°15' W 123°32'1111.8
2014-Jul-30 05:33N 48°10' W 123°16'1817.9
2014-Jul-30 04:33N 48°12' W 122°49'1818.0
2014-Jul-30 03:33N 47°57' W 122°33'1717.2
2014-Jul-30 02:33N 47°41' W 122°27'1616.4
2014-Jul-30 01:33N 47°25' W 122°22'9 8.5
2014-Jul-30 00:33N 47°16' W 122°24'1 0.2
2014-Jul-29 21:24N 47°16' W 122°23'0 0.0
2014-Jul-29 20:30N 47°16' W 122°23'0 0.0
2014-Jul-29 19:24N 47°16' W 122°23'0 0.0
2014-Jul-29 17:30N 47°16' W 122°23'0 0.0
2014-Jul-29 15:24N 47°16' W 122°23'0 0.0
2014-Jul-29 14:18N 47°16' W 122°23'0 0.2
2014-Jul-29 13:33N 47°16' W 122°23'2 2.5
2014-Jul-29 12:34N 47°17' W 122°26'7 7.2
2014-Jul-29 11:33N 47°24' W 122°22'1616.5
2014-Jul-29 10:33N 47°40' W 122°28'1717.4
2014-Jul-29 09:33N 47°57' W 122°33'1817.6
2014-Jul-29 08:33N 48°11' W 122°50'1515.0
2014-Jul-29 07:33N 48°11' W 123°12'1212.5
2014-Jul-29 06:33N 48°13' W 123°31'1211.9
2014-Jul-29 05:33N 48°13' W 123°49'1515.2
2014-Jul-29 04:33N 48°18' W 124°10'1616.5
2014-Jul-29 03:33N 48°25' W 124°33'1616.4
2014-Jul-29 02:33N 48°29' W 124°57'1515.2
2014-Jul-29 01:33N 48°15' W 125°07'1515.4
2014-Jul-29 00:33N 48°00' W 125°14'1616.0
2014-Jul-28 23:33N 47°44' W 125°17'2416.0
2014-Jul-28 22:05N 47°21' W 125°16'916.2
2014-Jul-28 21:33N 47°12' W 125°16'1816.2
2014-Jul-28 20:26N 46°54' W 125°15'1416.5
2014-Jul-28 19:33N 46°40' W 125°14'2817.7
2014-Jul-28 18:00N 46°12' W 125°12'813.1 340 / 101021.210.8 1.517.0 18.2
2014-Jul-28 17:21N 46°04' W 125°13'2016.2
2014-Jul-28 16:08N 45°44' W 125°12'4516.3
2014-Jul-28 13:22N 44°59' W 125°11'2921.2
2014-Jul-28 12:00N 44°30' W 125°06'9616.0 010 / 171019.2 2.2 16.3 16.0
2014-Jul-28 06:00N 42°54' W 125°06'10818.0 010 / 141018.0 5.4 14.6 11.2
2014-Jul-28 00:00N 41°06' W 125°00'8514.2 350 / 171016.2 1.1 1.514.9 13.0
2014-Jul-27 18:00N 39°42' W 124°42'1415.7 360 / 161015.7 1.1 1.512.7 13.9
2014-Jul-27 17:08N 39°29' W 124°37'4216.0
2014-Jul-27 14:31N 38°50' W 124°19'1515.9
2014-Jul-27 13:33N 38°35' W 124°12'1615.7
2014-Jul-27 12:32N 38°21' W 124°05'917.0
2014-Jul-27 12:00N 38°12' W 124°00'714.0 320 / 41014.0 5.4 14.1 15.0
2014-Jul-27 11:29N 38°05' W 123°58'1715.7
2014-Jul-27 10:24N 37°49' W 123°50'1416.0
2014-Jul-27 09:33N 37°36' W 123°44'1616.3
2014-Jul-27 08:33N 37°21' W 123°38'1616.2
2014-Jul-27 07:33N 37°06' W 123°30'1616.3
2014-Jul-27 06:33N 36°53' W 123°18'1934.5
2014-Jul-27 06:00N 36°36' W 123°06'4 9.7 1015.3 5.4 15.2 17.2
2014-Jul-27 05:33N 36°40' W 123°05'1716.8
2014-Jul-27 04:33N 36°27' W 122°52'1716.9
2014-Jul-27 03:33N 36°14' W 122°39'1716.8
2014-Jul-27 02:33N 36°01' W 122°25'1716.6
2014-Jul-27 01:33N 35°48' W 122°13'1716.6
2014-Jul-27 00:33N 35°35' W 121°60'1221.4
2014-Jul-27 00:00N 35°24' W 121°54'614.1 230 / 21015.2 2.2 1.017.4 18.0
2014-Jul-26 23:33N 35°22' W 121°47'1716.9
2014-Jul-26 22:33N 35°09' W 121°34'1716.5
2014-Jul-26 21:33N 34°56' W 121°21'1716.6
2014-Jul-26 20:33N 34°43' W 121°08'1515.1
2014-Jul-26 19:32N 34°31' W 120°57'4 3.8
2014-Jul-26 18:31N 34°27' W 120°55'9 9.0
2014-Jul-26 17:33N 34°25' W 120°45'1312.5
2014-Jul-26 16:33N 34°21' W 120°30'1312.7
2014-Jul-26 15:34N 34°18' W 120°15'1312.6
2014-Jul-26 14:34N 34°15' W 120°01'1312.5
2014-Jul-26 13:33N 34°11' W 119°46'1212.4
2014-Jul-26 12:33N 34°08' W 119°32'1211.9
2014-Jul-26 11:34N 34°06' W 119°18'6 5.7
2014-Jul-26 10:33N 34°09' W 119°12'0 0.0
2014-Jul-26 09:32N 34°09' W 119°12'0 0.0
2014-Jul-26 08:32N 34°09' W 119°12'0 0.0
2014-Jul-26 07:32N 34°09' W 119°12'0 0.0
2014-Jul-26 06:32N 34°09' W 119°12'0 0.0
2014-Jul-26 05:29N 34°09' W 119°12'0 0.0
2014-Jul-26 04:32N 34°09' W 119°12'0 0.0
2014-Jul-26 03:32N 34°09' W 119°12'0 0.0
2014-Jul-26 02:32N 34°09' W 119°12'0 0.0
2014-Jul-26 01:32N 34°09' W 119°12'0 0.0
2014-Jul-26 00:32N 34°09' W 119°12'0 0.0
2014-Jul-25 23:14N 34°09' W 119°12'0 0.0
2014-Jul-25 22:29N 34°09' W 119°12'0 0.0
2014-Jul-25 21:32N 34°09' W 119°12'0 0.0
2014-Jul-25 20:14N 34°09' W 119°12'0 0.0
2014-Jul-25 19:32N 34°09' W 119°12'0 0.0
2014-Jul-25 18:32N 34°09' W 119°12'0 0.0
2014-Jul-25 17:32N 34°09' W 119°12'0 0.0
2014-Jul-25 16:17N 34°09' W 119°12'0 0.0
2014-Jul-25 14:23N 34°09' W 119°12'0 0.3
2014-Jul-25 13:17N 34°09' W 119°13'5 6.2
2014-Jul-25 12:31N 34°04' W 119°14'7 7.0
2014-Jul-25 11:32N 34°00' W 119°07'7 6.9
2014-Jul-25 10:33N 33°54' W 119°09'8 7.6
2014-Jul-25 09:31N 33°46' W 119°11'7 7.5
2014-Jul-25 08:33N 33°39' W 119°13'9 8.0
2014-Jul-25 07:23N 33°30' W 119°15'7 8.0
2014-Jul-25 06:33N 33°23' W 119°14'8 7.9
2014-Jul-25 05:33N 33°16' W 119°12'8 8.4
2014-Jul-25 04:33N 33°07' W 119°10'8 8.1
2014-Jul-25 03:33N 32°59' W 119°08'8 8.0
2014-Jul-25 02:33N 32°51' W 119°08'3 2.6
2014-Jul-25 01:33N 32°49' W 119°09'1 0.8
2014-Jul-25 00:33N 32°49' W 119°10'1627.6
2014-Jul-25 00:00N 32°36' W 119°00'1 2.5 290 / 391009.7 5.4 2.020.3 20.1
2014-Jul-24 23:34N 32°36' W 118°59'1414.1
2014-Jul-24 22:33N 32°24' W 118°49'1312.7
2014-Jul-24 21:33N 32°13' W 118°42'1312.6
2014-Jul-24 20:32N 32°02' W 118°34'1313.1
2014-Jul-24 19:33N 31°50' W 118°27'1514.9
2014-Jul-24 18:33N 31°37' W 118°19'916.7
2014-Jul-24 18:00N 31°30' W 118°12'614.5 310 / 141011.8 5.4 1.519.6 20.7
2014-Jul-24 17:33N 31°24' W 118°09'1515.3
2014-Jul-24 16:33N 31°11' W 118°00'4615.4
2014-Jul-24 13:33N 30°32' W 117°32'1615.8
2014-Jul-24 12:31N 30°18' W 117°22'6121152.3
2014-Jul-24 12:00N 20°06' W 117°12'5991317.9 310 / 371010.1 2.2 19.8 20.1
2014-Jul-24 11:32N 30°05' W 117°13'1515.4
2014-Jul-24 10:33N 29°52' W 117°04'1615.6
2014-Jul-24 09:33N 29°38' W 116°55'1715.7
2014-Jul-24 08:28N 29°24' W 116°45'1515.4
2014-Jul-24 07:30N 29°11' W 116°36'1515.5
2014-Jul-24 06:33N 28°58' W 116°27'1323.4
2014-Jul-24 06:00N 28°48' W 116°18'3 6.1 340 / 661011.810.8 20.7 21.3
2014-Jul-24 05:33N 28°45' W 116°18'1515.5
2014-Jul-24 04:33N 28°32' W 116°09'1615.9
2014-Jul-24 03:33N 28°18' W 115°60'1616.1
2014-Jul-24 02:33N 28°05' W 115°50'3215.8
2014-Jul-24 00:33N 27°39' W 115°29'1515.2
2014-Jul-23 23:33N 27°27' W 115°18'1515.3
2014-Jul-23 22:33N 27°15' W 115°08'7315.9
2014-Jul-23 18:00N 26°18' W 114°18'9816.4 360 / 41013.310.8 0.521.6 22.5
2014-Jul-23 12:00N 25°00' W 113°12'9816.4 320 / 161011.1 5.4 23.2 27.1
2014-Jul-23 06:00N 23°42' W 112°06'   290 / 161013.110.8 25.6 29.1

Dump ship's entire track history